createdAt,value
2023-02-08T00:02:03.065Z,29.10
2023-02-08T00:04:50.471Z,25.33
2023-02-08T00:07:37.824Z,27.93
2023-02-08T00:10:25.222Z,27.90
2023-02-08T00:13:12.598Z,24.03
2023-02-08T00:16:00.206Z,30.17
2023-02-08T00:18:47.758Z,28.27
2023-02-08T00:21:35.108Z,27.13
2023-02-08T00:24:22.533Z,27.00
2023-02-08T00:27:19.624Z,28.13
2023-02-08T00:30:16.363Z,25.87
2023-02-08T00:33:05.139Z,28.37
2023-02-08T00:35:53.121Z,24.20
2023-02-08T00:38:40.583Z,23.27
2023-02-08T00:41:28.035Z,25.63
2023-02-08T00:44:15.457Z,27.40
2023-02-08T00:47:02.873Z,25.73
2023-02-08T00:49:50.182Z,24.03
2023-02-08T00:52:37.882Z,24.10
2023-02-08T00:55:25.258Z,24.73
2023-02-08T00:58:12.629Z,25.10
2023-02-08T01:01:01.774Z,24.20
2023-02-08T01:03:49.125Z,23.33
2023-02-08T01:06:36.518Z,27.10
2023-02-08T01:09:24.030Z,22.03
2023-02-08T01:12:11.766Z,25.73
2023-02-08T01:14:59.237Z,27.03
2023-02-08T01:17:46.614Z,27.27
2023-02-08T01:20:35.577Z,24.83
2023-02-08T01:23:22.995Z,25.67
2023-02-08T01:26:11.329Z,35.73
2023-02-08T01:28:59.469Z,35.47
2023-02-08T01:31:47.134Z,35.37
2023-02-08T01:34:34.533Z,29.37
2023-02-08T01:37:21.980Z,26.50
2023-02-08T01:40:09.694Z,26.70
2023-02-08T01:42:57.049Z,30.77
2023-02-08T01:45:44.401Z,25.27
2023-02-08T01:48:34.571Z,27.03
2023-02-08T01:51:23.286Z,23.80
2023-02-08T01:54:11.651Z,28.43
2023-02-08T01:56:59.251Z,33.63
2023-02-08T01:59:48.155Z,39.97
2023-02-08T02:02:36.857Z,40.60
2023-02-08T02:05:26.702Z,37.10
2023-02-08T02:08:14.216Z,45.33
2023-02-08T02:11:02.298Z,40.47
2023-02-08T02:13:51.079Z,38.13
2023-02-08T02:16:38.749Z,79.33
2023-02-08T02:19:32.259Z,77.03
2023-02-08T02:22:19.794Z,73.77
2023-02-08T02:25:13.323Z,61.90
2023-02-08T02:28:04.079Z,41.57
2023-02-08T02:31:12.445Z,30.73
2023-02-08T02:33:59.775Z,38.13
2023-02-08T02:36:56.522Z,29.87
2023-02-08T02:40:09.311Z,24.63
2023-02-08T02:43:22.045Z,23.50
2023-02-08T02:46:09.573Z,26.17
2023-02-08T02:49:03.714Z,38.00
2023-02-08T02:51:57.908Z,41.60
2023-02-08T02:54:51.805Z,31.13
2023-02-08T02:57:40.699Z,26.23
2023-02-08T03:00:30.012Z,26.90
2023-02-08T03:03:22.794Z,25.63
2023-02-08T03:06:19.017Z,22.90
2023-02-08T03:09:18.380Z,26.53
2023-02-08T03:12:14.036Z,30.07
2023-02-08T03:15:01.489Z,28.63
2023-02-08T03:17:55.371Z,26.07
2023-02-08T03:20:48.131Z,22.80
2023-02-08T03:23:41.940Z,23.53
2023-02-08T03:26:35.177Z,28.33
2023-02-08T03:29:41.729Z,26.40
2023-02-08T03:32:29.186Z,22.80
2023-02-08T03:35:20.503Z,26.27
2023-02-08T03:38:13.996Z,30.23
2023-02-08T03:41:03.123Z,25.67
2023-02-08T03:43:53.087Z,30.03
2023-02-08T03:46:42.832Z,25.17
2023-02-08T03:49:34.490Z,23.97
2023-02-08T03:52:23.100Z,27.97
2023-02-08T03:55:15.832Z,25.20
2023-02-08T03:58:12.350Z,24.30
2023-02-08T04:01:04.718Z,25.37
2023-02-08T04:03:53.914Z,26.33
2023-02-08T04:06:41.426Z,24.37
2023-02-08T04:09:28.808Z,28.90
2023-02-08T04:12:16.253Z,23.50
2023-02-08T04:15:03.801Z,24.27
2023-02-08T04:17:51.166Z,24.40
2023-02-08T04:20:38.838Z,22.20
2023-02-08T04:23:26.288Z,25.63
2023-02-08T04:26:13.726Z,23.63
2023-02-08T04:29:01.134Z,25.13
2023-02-08T04:31:48.586Z,29.37
2023-02-08T04:34:35.961Z,27.43
2023-02-08T04:37:23.374Z,28.03
2023-02-08T04:40:11.205Z,23.67
2023-02-08T04:42:58.603Z,28.80
2023-02-08T04:45:46.117Z,24.03
2023-02-08T04:48:33.498Z,21.40
2023-02-08T04:51:20.958Z,25.40
2023-02-08T04:54:08.739Z,21.63
2023-02-08T04:56:56.256Z,22.93
2023-02-08T04:59:43.639Z,23.10
2023-02-08T05:02:31.022Z,21.60
2023-02-08T05:05:18.501Z,24.87
2023-02-08T05:08:05.908Z,29.37
2023-02-08T05:10:53.382Z,28.13
2023-02-08T05:13:40.804Z,26.47
2023-02-08T05:16:28.257Z,24.60
2023-02-08T05:19:15.852Z,29.17
2023-02-08T05:22:03.302Z,29.83
2023-02-08T05:24:50.776Z,26.87
2023-02-08T05:27:38.130Z,32.47
2023-02-08T05:30:25.560Z,32.07
2023-02-08T05:33:13.077Z,34.20
2023-02-08T05:36:00.507Z,30.73
2023-02-08T05:38:48.066Z,35.80
2023-02-08T05:41:35.782Z,38.07
2023-02-08T05:44:25.001Z,36.33
2023-02-08T05:47:13.879Z,37.00
2023-02-08T05:50:01.353Z,32.90
2023-02-08T05:52:48.718Z,39.50
2023-02-08T05:55:36.090Z,36.87
2023-02-08T05:58:23.452Z,35.67
2023-02-08T06:01:11.338Z,32.33
2023-02-08T06:04:00.213Z,37.90
2023-02-08T06:06:47.606Z,40.33
2023-02-08T06:09:34.924Z,40.10
2023-02-08T06:12:22.338Z,44.13
2023-02-08T06:15:10.066Z,35.63
2023-02-08T06:17:57.766Z,36.93
2023-02-08T06:20:45.192Z,40.37
2023-02-08T06:23:32.761Z,38.80
2023-02-08T06:26:20.123Z,43.10
2023-02-08T06:29:07.473Z,37.50
2023-02-08T06:31:54.950Z,37.90
2023-02-08T06:34:42.454Z,44.33
2023-02-08T06:37:29.849Z,37.13
2023-02-08T06:40:17.242Z,41.03
2023-02-08T06:43:04.583Z,39.10
2023-02-08T06:45:52.046Z,44.20
2023-02-08T06:48:39.520Z,41.27
2023-02-08T06:51:27.583Z,46.43
2023-02-08T06:54:15.583Z,45.33
2023-02-08T06:57:02.994Z,47.00
2023-02-08T06:59:50.395Z,44.23
2023-02-08T07:02:37.804Z,57.93
2023-02-08T07:05:25.161Z,49.63
2023-02-08T07:08:12.574Z,42.83
2023-02-08T07:11:00.098Z,50.47
2023-02-08T07:13:48.717Z,47.53
2023-02-08T07:16:36.086Z,51.10
2023-02-08T07:19:23.485Z,60.90
2023-02-08T07:22:10.942Z,50.30
2023-02-08T07:24:58.366Z,53.77
2023-02-08T07:27:45.777Z,49.43
2023-02-08T07:30:33.153Z,50.13
2023-02-08T07:33:20.842Z,48.67
2023-02-08T07:36:08.940Z,54.37
2023-02-08T07:38:56.264Z,46.13
2023-02-08T07:41:43.743Z,56.57
2023-02-08T07:44:31.098Z,54.57
2023-02-08T07:47:18.597Z,52.60
2023-02-08T07:50:06.098Z,55.53
2023-02-08T07:52:53.461Z,53.10
2023-02-08T07:55:40.888Z,52.53
2023-02-08T07:58:28.453Z,53.30
2023-02-08T08:01:22.258Z,53.33
2023-02-08T08:04:10.417Z,52.47
2023-02-08T08:06:57.923Z,55.70
2023-02-08T08:09:45.337Z,55.17
2023-02-08T08:12:32.742Z,51.70
2023-02-08T08:15:20.440Z,54.47
2023-02-08T08:18:07.978Z,57.17
2023-02-08T08:20:55.499Z,51.03
2023-02-08T08:23:43.121Z,54.23
2023-02-08T08:26:30.468Z,52.20
2023-02-08T08:29:17.856Z,51.93
2023-02-08T08:32:05.393Z,56.27
2023-02-08T08:34:52.865Z,55.70
2023-02-08T08:37:40.254Z,51.20
2023-02-08T08:40:27.658Z,52.83
2023-02-08T08:43:15.989Z,51.50
2023-02-08T08:46:03.486Z,49.27
2023-02-08T08:48:51.686Z,44.27
2023-02-08T08:51:39.126Z,46.33
2023-02-08T08:54:26.494Z,46.37
2023-02-08T08:57:13.844Z,39.77
2023-02-08T09:00:02.012Z,44.03
2023-02-08T09:02:49.670Z,35.90
2023-02-08T09:05:37.092Z,36.60
2023-02-08T09:08:24.447Z,36.00
2023-02-08T09:11:15.932Z,36.37
2023-02-08T09:14:04.572Z,39.40
2023-02-08T09:16:52.698Z,33.30
2023-02-08T09:19:40.184Z,30.33
2023-02-08T09:22:27.584Z,30.03
2023-02-08T09:25:15.031Z,31.27
2023-02-08T09:28:02.558Z,31.33
2023-02-08T09:30:49.964Z,29.10
2023-02-08T09:33:37.512Z,28.13
2023-02-08T09:36:25.864Z,29.27
2023-02-08T09:39:17.896Z,28.37
2023-02-08T09:42:14.471Z,33.23
2023-02-08T09:45:20.782Z,24.80
2023-02-08T09:48:20.292Z,28.87
2023-02-08T09:51:07.626Z,25.77
2023-02-08T09:53:58.474Z,28.20
2023-02-08T09:56:47.359Z,27.10
2023-02-08T09:59:35.944Z,23.90
2023-02-08T10:02:23.330Z,25.13
2023-02-08T10:05:15.532Z,25.73
2023-02-08T10:08:03.050Z,26.10
2023-02-08T10:11:00.147Z,26.67
2023-02-08T10:14:16.495Z,24.53
2023-02-08T10:17:22.603Z,24.17
2023-02-08T10:20:29.247Z,24.23
2023-02-08T10:23:19.914Z,24.90
2023-02-08T10:26:14.337Z,25.07
2023-02-08T10:29:07.810Z,22.00
2023-02-08T10:32:01.875Z,24.43
2023-02-08T10:34:56.929Z,25.20
2023-02-08T10:37:46.220Z,24.00
2023-02-08T10:40:36.141Z,27.33
2023-02-08T10:43:27.523Z,21.70
2023-02-08T10:46:21.260Z,23.20
2023-02-08T10:49:21.165Z,22.90
2023-02-08T10:52:08.660Z,25.37
2023-02-08T10:54:59.303Z,24.30
2023-02-08T10:57:48.420Z,23.53
2023-02-08T11:00:39.010Z,22.40
2023-02-08T11:03:27.889Z,23.57
2023-02-08T11:06:28.069Z,23.07
2023-02-08T11:09:26.783Z,23.40
2023-02-08T11:12:19.733Z,22.50
2023-02-08T11:15:21.345Z,21.97
2023-02-08T11:18:16.191Z,24.30
2023-02-08T11:21:05.562Z,23.37
2023-02-08T11:23:54.663Z,22.17
2023-02-08T11:26:45.954Z,22.50
2023-02-08T11:29:33.316Z,35.83
2023-02-08T11:32:21.446Z,26.53
2023-02-08T11:35:25.279Z,24.00
2023-02-08T11:38:19.205Z,23.73
2023-02-08T11:41:14.587Z,23.97
2023-02-08T11:44:06.361Z,22.70
2023-02-08T11:46:54.829Z,25.77
2023-02-08T11:49:43.735Z,21.90
2023-02-08T11:52:33.787Z,21.17
2023-02-08T11:55:26.025Z,20.63
2023-02-08T11:58:13.390Z,25.77
2023-02-08T12:01:03.053Z,22.23
2023-02-08T12:03:51.215Z,22.53
2023-02-08T12:06:50.893Z,22.03
2023-02-08T12:09:41.336Z,21.97
2023-02-08T12:12:39.634Z,23.93
2023-02-08T12:15:57.784Z,23.60
2023-02-08T12:18:59.169Z,24.47
2023-02-08T12:21:47.798Z,21.20
2023-02-08T12:24:35.162Z,21.73
2023-02-08T12:27:31.000Z,21.70
2023-02-08T12:30:31.755Z,23.20
2023-02-08T12:33:51.773Z,24.97
2023-02-08T12:36:45.320Z,19.03
2023-02-08T12:39:58.545Z,21.33
2023-02-08T12:42:55.399Z,21.20
2023-02-08T12:45:51.751Z,20.63
2023-02-08T12:49:04.554Z,23.33
2023-02-08T12:52:13.678Z,18.23
2023-02-08T12:55:10.981Z,20.90
2023-02-08T12:57:59.649Z,21.87
2023-02-08T13:00:47.978Z,20.97
2023-02-08T13:03:58.421Z,22.80
2023-02-08T13:06:49.602Z,19.60
2023-02-08T13:09:41.059Z,21.70
2023-02-08T13:12:31.275Z,21.93
2023-02-08T13:15:30.261Z,23.87
2023-02-08T13:18:21.016Z,19.37
2023-02-08T13:21:20.569Z,20.97
2023-02-08T13:24:17.718Z,20.80
2023-02-08T13:27:08.075Z,21.10
2023-02-08T13:29:55.882Z,25.87
2023-02-08T13:32:45.335Z,22.43
2023-02-08T13:35:33.140Z,20.40
2023-02-08T13:38:32.503Z,21.67
2023-02-08T13:41:21.378Z,22.93
2023-02-08T13:44:10.503Z,23.60
2023-02-08T13:46:58.253Z,27.13
2023-02-08T13:49:52.436Z,21.37
2023-02-08T13:52:48.172Z,25.83
2023-02-08T13:55:38.267Z,21.43
2023-02-08T13:58:35.430Z,22.10
2023-02-08T14:01:24.961Z,21.27
2023-02-08T14:04:12.486Z,19.90
2023-02-08T14:07:01.779Z,19.03
2023-02-08T14:09:49.218Z,19.53
2023-02-08T14:12:42.761Z,28.00
2023-02-08T14:15:32.052Z,22.93
2023-02-08T14:18:25.160Z,23.67
2023-02-08T14:21:23.665Z,19.33
2023-02-08T14:24:22.563Z,21.77
2023-02-08T14:27:21.185Z,18.33
2023-02-08T14:30:20.773Z,23.37
2023-02-08T14:33:08.105Z,23.27
2023-02-08T14:36:05.867Z,24.83
2023-02-08T14:39:05.266Z,28.57
2023-02-08T14:42:01.848Z,24.47
2023-02-08T14:44:56.652Z,24.07
2023-02-08T14:47:43.972Z,22.17
2023-02-08T14:50:33.272Z,23.33
2023-02-08T14:53:24.803Z,20.50
2023-02-08T14:56:23.305Z,20.47
2023-02-08T14:59:18.790Z,20.30
2023-02-08T15:02:16.082Z,21.37
2023-02-08T15:05:09.933Z,18.47
2023-02-08T15:08:01.703Z,21.10
2023-02-08T15:10:49.060Z,21.27
2023-02-08T15:13:36.564Z,23.53
2023-02-08T15:16:26.626Z,23.40
2023-02-08T15:19:38.420Z,26.43
2023-02-08T15:22:25.885Z,23.53
2023-02-08T15:25:25.566Z,26.60
2023-02-08T15:28:21.610Z,23.70
2023-02-08T15:31:10.287Z,23.53
2023-02-08T15:33:58.992Z,22.33
2023-02-08T15:36:49.229Z,23.57
2023-02-08T15:39:39.381Z,23.27
2023-02-08T15:42:28.940Z,22.90
2023-02-08T15:45:24.600Z,22.83
2023-02-08T15:48:12.872Z,23.43
2023-02-08T15:51:00.790Z,25.10
2023-02-08T15:53:50.058Z,25.13
2023-02-08T15:56:42.412Z,24.77
2023-02-08T15:59:32.750Z,26.97
2023-02-08T16:02:31.151Z,26.70
2023-02-08T16:05:20.976Z,28.80
2023-02-08T16:08:08.603Z,25.07
2023-02-08T16:11:16.199Z,24.47
2023-02-08T16:14:05.187Z,23.13
2023-02-08T16:16:54.237Z,25.40
2023-02-08T16:19:50.903Z,28.37
2023-02-08T16:22:38.309Z,32.57
2023-02-08T16:25:34.333Z,30.07
2023-02-08T16:28:26.894Z,32.73
2023-02-08T16:31:20.355Z,29.47
2023-02-08T16:34:13.492Z,28.03
2023-02-08T16:37:01.746Z,32.40
2023-02-08T16:39:49.105Z,32.70
2023-02-08T16:42:39.881Z,26.73
2023-02-08T16:45:27.282Z,38.30
2023-02-08T16:48:28.877Z,35.40
2023-02-08T16:51:21.805Z,37.73
2023-02-08T16:54:14.324Z,36.08
2023-02-08T16:57:01.882Z,32.50
2023-02-08T16:59:49.328Z,31.77
2023-02-08T17:02:36.733Z,30.87
2023-02-08T17:05:25.680Z,32.30
2023-02-08T17:08:15.831Z,28.37
2023-02-08T17:11:03.305Z,33.15
2023-02-08T17:13:52.263Z,30.07
2023-02-08T17:16:40.462Z,31.57
2023-02-08T17:19:27.811Z,32.67
2023-02-08T17:22:15.288Z,32.30
2023-02-08T17:25:02.742Z,31.90
2023-02-08T17:27:51.289Z,30.70
2023-02-08T17:30:40.159Z,30.80
2023-02-08T17:33:29.240Z,35.23
2023-02-08T17:36:17.184Z,37.90
2023-02-08T17:39:05.420Z,36.37
2023-02-08T17:41:52.774Z,29.97
2023-02-08T17:44:40.282Z,29.27
2023-02-08T17:47:27.700Z,34.47
2023-02-08T17:50:15.939Z,30.50
2023-02-08T17:53:03.907Z,33.03
2023-02-08T17:55:52.353Z,32.27
2023-02-08T17:58:40.161Z,34.37
2023-02-08T18:01:27.868Z,34.77
2023-02-08T18:04:15.290Z,39.37
2023-02-08T18:07:02.687Z,36.63
2023-02-08T18:09:50.037Z,37.20
2023-02-08T18:12:38.050Z,39.63
2023-02-08T18:15:25.505Z,36.22
2023-02-08T18:18:13.082Z,38.97
2023-02-08T18:21:00.432Z,41.97
2023-02-08T18:23:49.419Z,38.40
2023-02-08T18:26:36.883Z,42.07
2023-02-08T18:29:24.869Z,42.50
2023-02-08T18:32:12.433Z,41.20
2023-02-08T18:35:02.387Z,39.23
2023-02-08T18:37:50.869Z,39.90
2023-02-08T18:40:40.447Z,33.03
2023-02-08T18:43:27.799Z,42.33
2023-02-08T18:46:18.240Z,46.20
2023-02-08T18:49:06.748Z,43.70
2023-02-08T18:51:54.211Z,39.53
2023-02-08T18:54:41.613Z,38.30
2023-02-08T18:57:29.050Z,39.07
2023-02-08T19:00:16.781Z,45.20
2023-02-08T19:03:04.227Z,36.47
2023-02-08T19:05:51.665Z,43.47
2023-02-08T19:08:40.277Z,41.17
2023-02-08T19:11:29.221Z,33.90
2023-02-08T19:14:16.583Z,43.27
2023-02-08T19:17:04.406Z,37.47
2023-02-08T19:19:51.774Z,41.63
2023-02-08T19:22:39.155Z,43.23
2023-02-08T19:25:26.518Z,41.87
2023-02-08T19:28:13.983Z,41.10
2023-02-08T19:31:12.634Z,40.17
2023-02-08T19:34:01.704Z,41.50
2023-02-08T19:36:51.651Z,38.37
2023-02-08T19:39:39.194Z,41.80
2023-02-08T19:42:26.575Z,38.17
2023-02-08T19:45:14.559Z,39.10
2023-02-08T19:48:01.937Z,45.93
2023-02-08T19:51:00.981Z,38.80
2023-02-08T19:53:48.384Z,51.57
2023-02-08T19:56:35.744Z,41.60
2023-02-08T19:59:27.768Z,39.40
2023-02-08T20:02:18.230Z,46.43
2023-02-08T20:05:05.920Z,42.00
2023-02-08T20:07:53.302Z,42.33
2023-02-08T20:10:44.790Z,39.33
2023-02-08T20:13:32.402Z,43.33
2023-02-08T20:16:21.484Z,43.57
2023-02-08T20:19:11.326Z,41.57
2023-02-08T20:21:58.759Z,40.73
2023-02-08T20:24:46.094Z,44.70
2023-02-08T20:27:33.617Z,39.87
2023-02-08T20:30:21.162Z,38.07
2023-02-08T20:33:08.582Z,45.07
2023-02-08T20:35:56.016Z,47.13
2023-02-08T20:38:44.336Z,38.80
2023-02-08T20:41:33.879Z,38.93
2023-02-08T20:44:21.311Z,41.23
2023-02-08T20:47:10.570Z,40.93
2023-02-08T20:49:59.596Z,42.07
2023-02-08T20:52:49.075Z,44.50
2023-02-08T20:55:40.638Z,40.70
2023-02-08T20:58:28.148Z,40.70
2023-02-08T21:01:17.143Z,39.27
2023-02-08T21:04:05.417Z,37.53
2023-02-08T21:06:53.218Z,40.10
2023-02-08T21:09:40.598Z,45.73
2023-02-08T21:12:33.320Z,42.00
2023-02-08T21:15:25.781Z,38.50
2023-02-08T21:18:13.312Z,40.63
2023-02-08T21:21:01.890Z,45.17
2023-02-08T21:23:49.262Z,40.20
2023-02-08T21:26:36.829Z,42.20
2023-02-08T21:29:24.959Z,42.63
2023-02-08T21:32:12.327Z,41.23
2023-02-08T21:34:59.707Z,41.30
2023-02-08T21:37:47.112Z,43.00
2023-02-08T21:40:34.704Z,43.63
2023-02-08T21:43:22.122Z,44.20
2023-02-08T21:46:10.232Z,43.77
2023-02-08T21:49:16.699Z,39.83
2023-02-08T21:52:22.861Z,44.00
2023-02-08T21:55:10.249Z,48.60
2023-02-08T21:57:57.601Z,43.77
2023-02-08T22:00:45.326Z,40.90
2023-02-08T22:03:34.443Z,42.63
2023-02-08T22:06:40.413Z,49.17
2023-02-08T22:09:29.043Z,46.33
2023-02-08T22:12:17.929Z,44.77
2023-02-08T22:15:05.552Z,42.80
2023-02-08T22:17:54.362Z,42.20
2023-02-08T22:20:43.554Z,51.00
2023-02-08T22:23:31.094Z,50.30
2023-02-08T22:26:18.488Z,43.93
2023-02-08T22:29:05.941Z,47.00
2023-02-08T22:31:53.494Z,42.00
2023-02-08T22:34:40.944Z,50.97
2023-02-08T22:37:28.334Z,45.77
2023-02-08T22:40:16.014Z,42.47
2023-02-08T22:43:03.791Z,42.67
2023-02-08T22:46:00.524Z,46.30
2023-02-08T22:48:48.213Z,49.23
2023-02-08T22:51:35.626Z,47.97
2023-02-08T22:54:23.125Z,48.23
2023-02-08T22:57:10.861Z,49.20
2023-02-08T22:59:58.328Z,52.63
2023-02-08T23:02:46.189Z,50.00
2023-02-08T23:05:33.680Z,46.03
2023-02-08T23:08:22.790Z,55.37
2023-02-08T23:11:16.939Z,53.53
2023-02-08T23:14:04.416Z,49.27
2023-02-08T23:16:51.792Z,59.03
2023-02-08T23:19:41.137Z,49.57
2023-02-08T23:22:28.534Z,59.77
2023-02-08T23:25:15.961Z,56.60
2023-02-08T23:28:03.376Z,50.20
2023-02-08T23:30:50.827Z,52.00
2023-02-08T23:33:38.821Z,53.00
2023-02-08T23:36:26.211Z,51.60
2023-02-08T23:39:14.755Z,60.87
2023-02-08T23:42:03.165Z,54.13
2023-02-08T23:44:50.700Z,58.00
2023-02-08T23:47:39.410Z,54.27
2023-02-08T23:50:27.119Z,59.03
2023-02-08T23:53:14.491Z,55.17
2023-02-08T23:56:11.159Z,60.63
2023-02-08T23:58:59.406Z,58.53
